Time;durP1;ratioP1;P1;durP2;ratioP2;P2;SDS_P1;SDS_P2;PMS_P1;PMS_P2;Temp;Humidity;BMP_temperature;BMP_pressure;BME280_temperature;BME280_humidity;BME280_pressure;Samples;Min_cycle;Max_cycle;Signal;HPM_P1;HPM_P2
2022/11/22 00:00:07;;;;;;;41.35;22.40;;;;;;;;;;6157316;23;20382;-78
2022/11/22 00:02:36;;;;;;;42.28;21.55;;;;;;;;;;6155098;23;20033;-76
2022/11/22 00:05:02;;;;;;;37.25;19.17;;;;;;;;;;6154456;23;20025;-77
2022/11/22 00:07:31;;;;;;;34.72;18.52;;;;;;;;;;6154029;23;20006;-76
2022/11/22 00:09:57;;;;;;;40.72;20.95;;;;;;;;;;6155488;23;20399;-77
2022/11/22 00:12:23;;;;;;;42.25;21.38;;;;;;;;;;6148845;23;20010;-77
2022/11/22 00:14:49;;;;;;;43.85;22.70;;;;;;;;;;6124605;23;20461;-77
2022/11/22 00:17:18;;;;;;;42.72;22.42;;;;;;;;;;6123876;23;20010;-77
2022/11/22 00:19:46;;;;;;;49.03;23.30;;;;;;;;;;6125111;23;20085;-77
2022/11/22 00:22:13;;;;;;;41.55;21.30;;;;;;;;;;6125015;23;20069;-77
2022/11/22 00:24:39;;;;;;;42.72;22.38;;;;;;;;;;6125757;23;20017;-77
2022/11/22 00:27:10;;;;;;;43.85;23.05;;;;;;;;;;6126200;23;20036;-77
2022/11/22 00:29:39;;;;;;;49.33;24.52;;;;;;;;;;6125221;23;20013;-77
2022/11/22 00:32:05;;;;;;;50.85;24.38;;;;;;;;;;6125375;23;20053;-77
2022/11/22 00:34:33;;;;;;;55.20;24.50;;;;;;;;;;6124497;23;20077;-77
2022/11/22 00:36:59;;;;;;;53.28;25.55;;;;;;;;;;6125328;23;20414;-77
2022/11/22 00:39:25;;;;;;;56.17;26.73;;;;;;;;;;6125363;23;20010;-77
2022/11/22 00:41:51;;;;;;;51.97;24.02;;;;;;;;;;6125160;23;20010;-77
2022/11/22 00:44:20;;;;;;;55.03;25.65;;;;;;;;;;6124215;23;20016;-75
2022/11/22 00:46:48;;;;;;;52.50;25.35;;;;;;;;;;6126532;23;20077;-77
2022/11/22 00:49:17;;;;;;;54.38;26.02;;;;;;;;;;6126223;23;20006;-79
2022/11/22 00:51:43;;;;;;;63.50;26.65;;;;;;;;;;6126720;23;20039;-77
2022/11/22 00:54:09;;;;;;;50.80;25.67;;;;;;;;;;6124010;23;20015;-78
2022/11/22 00:56:38;;;;;;;49.63;25.52;;;;;;;;;;6124296;23;20006;-77
2022/11/22 00:59:04;;;;;;;50.80;24.48;;;;;;;;;;6126005;23;20009;-76
2022/11/22 01:01:36;;;;;;;56.28;25.92;;;;;;;;;;6126198;23;20256;-77
2022/11/22 01:04:04;;;;;;;51.65;24.80;;;;;;;;;;6124603;23;20006;-77
2022/11/22 01:06:30;;;;;;;45.97;22.80;;;;;;;;;;6124735;23;19998;-77
2022/11/22 01:08:57;;;;;;;52.25;24.90;;;;;;;;;;6124372;23;20438;-77
2022/11/22 01:11:23;;;;;;;48.90;23.80;;;;;;;;;;6141145;23;20017;-78
2022/11/22 01:13:51;;;;;;;53.88;26.05;;;;;;;;;;6155278;23;20037;-76
2022/11/22 01:16:17;;;;;;;53.10;24.35;;;;;;;;;;6154336;23;20005;-77
2022/11/22 01:18:44;;;;;;;56.75;25.38;;;;;;;;;;6153160;23;20295;-79
2022/11/22 01:21:10;;;;;;;54.95;25.67;;;;;;;;;;6153623;23;20005;-77
2022/11/22 01:23:37;;;;;;;55.45;26.15;;;;;;;;;;6168089;23;20049;-76
2022/11/22 01:26:08;;;;;;;54.67;25.75;;;;;;;;;;6154688;23;20009;-75
2022/11/22 01:28:34;;;;;;;51.08;26.50;;;;;;;;;;6128667;23;20008;-77
2022/11/22 01:31:03;;;;;;;58.33;26.48;;;;;;;;;;6154369;23;19997;-78
2022/11/22 01:33:32;;;;;;;55.55;27.10;;;;;;;;;;6154844;23;20044;-76
2022/11/22 01:35:58;;;;;;;53.45;25.98;;;;;;;;;;6153316;23;20002;-76
2022/11/22 01:38:24;;;;;;;46.97;24.35;;;;;;;;;;6153238;23;20414;-76
2022/11/22 01:40:50;;;;;;;50.58;24.85;;;;;;;;;;6153187;23;20005;-76
2022/11/22 01:43:21;;;;;;;45.53;22.50;;;;;;;;;;6153440;23;20016;-76
2022/11/22 01:45:49;;;;;;;43.72;22.88;;;;;;;;;;6152678;23;19998;-77
2022/11/22 01:48:28;;;;;;;43.40;22.35;;;;;;;;;;6177804;23;20450;-76
2022/11/22 01:50:57;;;;;;;40.78;21.73;;;;;;;;;;6177930;23;20040;-76
2022/11/22 01:53:29;;;;;;;42.53;22.65;;;;;;;;;;6154451;23;20002;-77
2022/11/22 01:55:57;;;;;;;50.17;24.08;;;;;;;;;;6153375;23;20041;-76
2022/11/22 01:58:23;;;;;;;42.90;22.65;;;;;;;;;;6177875;23;20017;-77
2022/11/22 02:00:54;;;;;;;42.88;22.77;;;;;;;;;;6153298;23;20006;-76
2022/11/22 02:03:21;;;;;;;33.00;16.20;;;;;;;;;;6154038;23;20016;-76
2022/11/22 02:05:47;;;;;;;45.72;22.95;;;;;;;;;;6177245;23;20249;-76
2022/11/22 02:08:33;;;;;;;42.53;21.10;;;;;;;;;;6154317;23;19997;-76
2022/11/22 02:11:01;;;;;;;39.28;20.67;;;;;;;;;;6152426;23;20006;-77
2022/11/22 02:13:29;;;;;;;45.42;21.33;;;;;;;;;;6154385;23;20020;-77
2022/11/22 02:15:55;;;;;;;49.83;23.75;;;;;;;;;;6154277;23;20045;-76
2022/11/22 02:18:21;;;;;;;44.92;23.35;;;;;;;;;;6154055;23;20002;-76
2022/11/22 02:20:47;;;;;;;41.33;20.55;;;;;;;;;;6154452;23;20009;-76
2022/11/22 02:23:13;;;;;;;44.75;22.10;;;;;;;;;;6154168;23;20017;-76
2022/11/22 02:25:42;;;;;;;45.15;21.42;;;;;;;;;;6154352;23;20002;-76
2022/11/22 02:28:09;;;;;;;54.22;25.95;;;;;;;;;;6152288;23;20071;-79
2022/11/22 02:30:36;;;;;;;53.33;24.17;;;;;;;;;;6152916;23;20002;-76
2022/11/22 02:33:05;;;;;;;47.20;22.67;;;;;;;;;;6154053;23;20005;-76
2022/11/22 02:35:31;;;;;;;51.67;23.65;;;;;;;;;;6153962;23;20002;-76
2022/11/22 02:38:00;;;;;;;44.97;22.50;;;;;;;;;;6153900;23;20072;-76
2022/11/22 02:40:29;;;;;;;42.13;22.38;;;;;;;;;;6152745;23;20331;-76
2022/11/22 02:43:15;;;;;;;39.50;21.35;;;;;;;;;;6153885;23;20056;-79
2022/11/22 02:45:41;;;;;;;46.40;22.65;;;;;;;;;;6138643;23;20013;-78
2022/11/22 02:48:12;;;;;;;49.80;23.05;;;;;;;;;;6154071;23;20002;-76
2022/11/22 02:50:38;;;;;;;43.80;22.63;;;;;;;;;;6152649;23;20006;-76
2022/11/22 02:53:05;;;;;;;64.65;27.75;;;;;;;;;;6154124;23;19997;-77
2022/11/22 02:55:31;;;;;;;49.70;25.08;;;;;;;;;;6154227;23;20032;-78
2022/11/22 02:58:00;;;;;;;66.03;30.88;;;;;;;;;;6153438;23;20463;-76
2022/11/22 03:00:26;;;;;;;60.25;28.05;;;;;;;;;;6154264;23;20011;-76
2022/11/22 03:02:52;;;;;;;69.57;31.08;;;;;;;;;;6154139;23;20005;-76
2022/11/22 03:05:19;;;;;;;73.55;31.45;;;;;;;;;;6154241;23;20009;-76
2022/11/22 03:07:45;;;;;;;70.43;30.67;;;;;;;;;;6152512;23;20002;-76
2022/11/22 03:10:11;;;;;;;68.13;30.92;;;;;;;;;;6152830;23;20005;-76
2022/11/22 03:12:37;;;;;;;67.82;29.10;;;;;;;;;;6177557;23;20002;-75
2022/11/22 03:15:09;;;;;;;69.85;30.83;;;;;;;;;;6154708;23;20089;-75
2022/11/22 03:17:40;;;;;;;65.15;29.98;;;;;;;;;;6155623;23;20064;-76
2022/11/22 03:20:10;;;;;;;61.95;30.60;;;;;;;;;;6154988;23;20442;-76
2022/11/22 03:22:36;;;;;;;68.85;30.70;;;;;;;;;;6179092;23;20493;-76
2022/11/22 03:25:05;;;;;;;67.25;31.73;;;;;;;;;;6179517;23;20533;-75
2022/11/22 03:27:33;;;;;;;65.80;30.67;;;;;;;;;;6155457;23;19994;-76
2022/11/22 03:29:59;;;;;;;63.88;30.70;;;;;;;;;;6155055;23;20001;-76
2022/11/22 03:32:25;;;;;;;65.97;31.00;;;;;;;;;;6155665;23;20002;-76
2022/11/22 03:34:51;;;;;;;75.22;32.45;;;;;;;;;;6154495;23;20473;-76
2022/11/22 03:37:17;;;;;;;71.57;30.48;;;;;;;;;;6154148;23;20092;-76
2022/11/22 03:39:43;;;;;;;76.82;32.88;;;;;;;;;;6178626;23;20105;-76
2022/11/22 03:42:09;;;;;;;57.45;27.27;;;;;;;;;;6155372;23;20093;-76
2022/11/22 03:44:35;;;;;;;70.10;30.83;;;;;;;;;;6155144;23;20080;-76
2022/11/22 03:47:01;;;;;;;74.45;33.47;;;;;;;;;;6155361;23;20038;-78
2022/11/22 03:49:27;;;;;;;72.25;34.20;;;;;;;;;;6156131;23;20006;-77
2022/11/22 03:51:53;;;;;;;71.28;31.52;;;;;;;;;;6155923;23;20341;-77
2022/11/22 03:54:19;;;;;;;74.68;32.88;;;;;;;;;;6155979;23;20434;-76
2022/11/22 03:56:45;;;;;;;78.95;34.30;;;;;;;;;;6154456;23;20012;-76
2022/11/22 03:59:11;;;;;;;75.72;31.02;;;;;;;;;;6154132;23;20023;-76
2022/11/22 04:01:38;;;;;;;71.65;33.33;;;;;;;;;;6155263;23;20012;-79
2022/11/22 04:04:04;;;;;;;78.75;33.45;;;;;;;;;;6155164;23;20068;-78
2022/11/22 04:06:30;;;;;;;76.97;34.53;;;;;;;;;;6155414;23;20001;-77
2022/11/22 04:08:56;;;;;;;80.20;33.70;;;;;;;;;;6155187;23;20068;-78
2022/11/22 04:11:22;;;;;;;74.43;33.13;;;;;;;;;;6154411;23;20489;-79
2022/11/22 04:16:33;;;;;;;76.90;35.03;;;;;;;;;;6155670;23;20412;-77
2022/11/22 04:18:59;;;;;;;64.40;31.45;;;;;;;;;;6155204;23;20013;-77
2022/11/22 04:21:34;;;;;;;77.07;34.08;;;;;;;;;;6155357;23;20012;-77
2022/11/22 04:26:59;;;;;;;66.53;30.08;;;;;;;;;;6123845;23;20477;-76
2022/11/22 04:29:25;;;;;;;64.18;30.50;;;;;;;;;;6153489;23;20004;-76
2022/11/22 04:34:41;;;;;;;60.92;30.00;;;;;;;;;;6155470;23;20016;-76
2022/11/22 04:37:07;;;;;;;61.53;29.88;;;;;;;;;;6154204;23;20005;-75
2022/11/22 04:39:33;;;;;;;62.05;28.77;;;;;;;;;;6153580;23;20009;-76
2022/11/22 04:44:44;;;;;;;55.58;27.17;;;;;;;;;;6168471;23;20048;-75
2022/11/22 04:47:11;;;;;;;65.13;28.88;;;;;;;;;;6168424;23;19998;-77
2022/11/22 04:49:37;;;;;;;58.33;28.13;;;;;;;;;;6159370;23;20223;-76
2022/11/22 04:54:50;;;;;;;53.97;26.33;;;;;;;;;;6154753;23;20101;-77
2022/11/22 04:57:17;;;;;;;57.33;28.45;;;;;;;;;;6155083;23;19997;-77
2022/11/22 04:59:43;;;;;;;54.80;27.70;;;;;;;;;;6153398;23;20016;-76
2022/11/22 05:02:09;;;;;;;56.22;29.27;;;;;;;;;;6155026;23;20013;-75
2022/11/22 05:04:35;;;;;;;55.78;26.13;;;;;;;;;;6153784;23;20005;-76
2022/11/22 05:07:01;;;;;;;49.35;25.73;;;;;;;;;;6153262;23;20040;-75
2022/11/22 05:09:27;;;;;;;53.47;27.67;;;;;;;;;;6152978;23;20008;-76
2022/11/22 05:11:53;;;;;;;56.53;27.55;;;;;;;;;;6154953;23;20441;-76
2022/11/22 05:14:22;;;;;;;51.60;26.73;;;;;;;;;;6153189;23;20081;-76
2022/11/22 05:16:48;;;;;;;45.92;24.92;;;;;;;;;;6152789;23;20088;-76
2022/11/22 05:19:14;;;;;;;56.38;25.58;;;;;;;;;;6154944;23;20060;-75
2022/11/22 05:21:40;;;;;;;54.50;26.98;;;;;;;;;;6154340;23;19998;-76
2022/11/22 05:24:06;;;;;;;52.33;26.00;;;;;;;;;;6177888;23;20020;-76
2022/11/22 05:26:33;;;;;;;54.78;26.27;;;;;;;;;;6154423;23;20004;-76
2022/11/22 05:29:03;;;;;;;51.75;25.73;;;;;;;;;;6156439;23;20029;-75
2022/11/22 05:31:29;;;;;;;45.42;24.23;;;;;;;;;;6154272;23;19998;-75
2022/11/22 05:33:56;;;;;;;49.88;26.58;;;;;;;;;;6154376;23;20084;-75
2022/11/22 05:36:23;;;;;;;59.03;27.92;;;;;;;;;;6153048;23;20092;-77
2022/11/22 05:38:48;;;;;;;49.00;26.80;;;;;;;;;;6152756;23;20044;-76
2022/11/22 05:41:17;;;;;;;47.83;25.48;;;;;;;;;;6152943;23;20001;-76
2022/11/22 05:43:44;;;;;;;56.60;27.58;;;;;;;;;;6154149;23;20263;-76
2022/11/22 05:46:11;;;;;;;52.97;25.83;;;;;;;;;;6153935;23;20005;-77
2022/11/22 05:48:38;;;;;;;47.35;25.63;;;;;;;;;;6154121;23;20004;-76
2022/11/22 05:51:08;;;;;;;50.22;25.40;;;;;;;;;;6153119;23;20005;-76
2022/11/22 05:53:38;;;;;;;47.80;24.53;;;;;;;;;;6152843;23;20001;-76
2022/11/22 05:56:07;;;;;;;46.25;25.13;;;;;;;;;;6154065;23;20398;-77
2022/11/22 05:58:33;;;;;;;42.33;23.33;;;;;;;;;;6154154;23;20354;-75
2022/11/22 06:01:07;;;;;;;42.67;23.60;;;;;;;;;;6154455;23;20002;-76
2022/11/22 06:03:33;;;;;;;41.13;22.55;;;;;;;;;;6154644;23;20076;-79
2022/11/22 06:05:59;;;;;;;37.60;22.75;;;;;;;;;;6152506;23;20012;-77
2022/11/22 06:08:29;;;;;;;37.53;22.55;;;;;;;;;;6177284;23;20013;-75
2022/11/22 06:11:01;;;;;;;37.28;22.45;;;;;;;;;;6177904;23;20080;-78
2022/11/22 06:13:27;;;;;;;38.97;21.15;;;;;;;;;;6152625;23;20013;-77
2022/11/22 06:15:58;;;;;;;34.90;21.55;;;;;;;;;;6152841;23;20009;-77
2022/11/22 06:18:24;;;;;;;40.60;21.92;;;;;;;;;;6152469;23;20016;-77
2022/11/22 06:20:50;;;;;;;42.15;22.33;;;;;;;;;;6177547;23;20005;-76
2022/11/22 06:23:17;;;;;;;37.80;22.35;;;;;;;;;;6152261;23;20018;-77
2022/11/22 06:25:45;;;;;;;38.58;21.33;;;;;;;;;;6152723;23;20001;-77
2022/11/22 06:28:11;;;;;;;33.92;20.13;;;;;;;;;;6152557;23;20012;-77
2022/11/22 06:30:37;;;;;;;34.97;20.67;;;;;;;;;;6154466;23;19993;-80
2022/11/22 06:33:04;;;;;;;35.38;20.15;;;;;;;;;;6154156;23;20329;-78
2022/11/22 06:35:32;;;;;;;32.78;20.13;;;;;;;;;;6153707;23;20399;-79
2022/11/22 06:37:58;;;;;;;32.00;21.02;;;;;;;;;;6153287;23;20005;-77
2022/11/22 06:40:24;;;;;;;34.65;20.60;;;;;;;;;;6153793;23;20445;-77
2022/11/22 06:42:51;;;;;;;31.42;19.30;;;;;;;;;;6153851;23;20433;-76
2022/11/22 06:45:17;;;;;;;32.70;19.38;;;;;;;;;;6153800;23;20076;-76
2022/11/22 06:47:43;;;;;;;33.45;19.67;;;;;;;;;;6151509;23;20030;-76
2022/11/22 06:50:09;;;;;;;31.17;19.55;;;;;;;;;;6152429;23;20005;-76
2022/11/22 06:52:35;;;;;;;31.40;20.40;;;;;;;;;;6154880;23;20016;-77
2022/11/22 06:55:02;;;;;;;33.67;20.25;;;;;;;;;;6154210;23;20206;-75
2022/11/22 06:57:27;;;;;;;35.97;20.60;;;;;;;;;;6178786;23;20001;-76
2022/11/22 06:59:53;;;;;;;35.28;21.17;;;;;;;;;;6155986;23;20005;-76
2022/11/22 07:02:20;;;;;;;32.08;19.77;;;;;;;;;;6153735;23;20508;-77
2022/11/22 07:04:46;;;;;;;37.13;21.88;;;;;;;;;;6179099;23;20016;-76
2022/11/22 07:07:14;;;;;;;34.80;21.30;;;;;;;;;;6178389;23;20001;-77
2022/11/22 07:09:40;;;;;;;30.00;19.30;;;;;;;;;;6155675;23;20325;-77
2022/11/22 07:12:06;;;;;;;33.92;20.77;;;;;;;;;;6153246;23;20338;-76
2022/11/22 07:14:32;;;;;;;39.15;22.92;;;;;;;;;;6177998;23;20067;-73
2022/11/22 07:16:58;;;;;;;31.95;19.75;;;;;;;;;;6154851;23;20418;-76
2022/11/22 07:19:24;;;;;;;32.15;20.33;;;;;;;;;;6153400;23;20010;-76
2022/11/22 07:24:33;;;;;;;;;;;;;;;;;;;;;
2022/11/22 07:27:11;;;;;;;33.20;19.50;;;;;;;;;;6125796;23;20072;-79
2022/11/22 07:30:15;;;;;;;;;;;;;;;;;;;;;
2022/11/22 07:32:54;;;;;;;30.73;19.75;;;;;;;;;;6157878;23;20096;-78
2022/11/22 07:36:02;;;;;;;;;;;;;;;;;;;;;
2022/11/22 07:38:52;;;;;;;34.25;22.02;;;;;;;;;;6166303;23;20489;-81
2022/11/22 07:42:03;;;;;;;;;;;;;;;;;;;;;
2022/11/22 07:44:34;;;;;;;39.42;22.73;;;;;;;;;;6086191;23;20072;-79
2022/11/22 07:47:23;;;;;;;31.67;20.20;;;;;;;;;;6178028;23;20434;-78
2022/11/22 07:49:52;;;;;;;36.45;20.73;;;;;;;;;;6179947;23;20048;-78
2022/11/22 07:58:53;;;;;;;30.38;18.83;;;;;;;;;;6061668;23;20017;-78
2022/11/22 08:01:20;;;;;;;31.70;19.50;;;;;;;;;;6124153;23;20009;-77
2022/11/22 08:03:48;;;;;;;32.45;19.05;;;;;;;;;;6125974;23;20005;-77
2022/11/22 08:06:22;;;;;;;36.70;21.38;;;;;;;;;;6151060;23;20013;-79
2022/11/22 08:08:51;;;;;;;34.35;19.75;;;;;;;;;;6149421;23;20133;-79
2022/11/22 08:11:24;;;;;;;29.55;19.02;;;;;;;;;;6149585;23;20124;-78
2022/11/22 08:13:50;;;;;;;31.15;19.63;;;;;;;;;;6150894;23;20032;-78
2022/11/22 08:16:21;;;;;;;27.77;18.80;;;;;;;;;;6149011;23;20032;-78
2022/11/22 08:18:48;;;;;;;32.08;18.70;;;;;;;;;;6150535;23;20523;-78
2022/11/22 08:21:17;;;;;;;27.55;17.30;;;;;;;;;;6149553;23;20435;-79
2022/11/22 08:23:43;;;;;;;34.03;19.83;;;;;;;;;;6127129;23;20005;-78
2022/11/22 08:26:16;;;;;;;29.83;17.83;;;;;;;;;;6126078;23;20031;-78
2022/11/22 08:28:45;;;;;;;28.23;18.67;;;;;;;;;;6127284;23;20093;-81
2022/11/22 08:31:29;;;;;;;25.50;17.25;;;;;;;;;;6150143;23;20517;-78
2022/11/22 08:33:55;;;;;;;26.58;16.95;;;;;;;;;;6127940;23;20052;-77
2022/11/22 08:36:22;;;;;;;24.60;16.48;;;;;;;;;;6128723;23;20362;-79
2022/11/22 08:38:48;;;;;;;24.77;15.80;;;;;;;;;;6152943;23;20449;-77
2022/11/22 08:41:14;;;;;;;26.20;16.27;;;;;;;;;;6151986;23;20330;-78
2022/11/22 08:43:40;;;;;;;24.30;16.20;;;;;;;;;;6151558;23;20092;-77
2022/11/22 08:46:06;;;;;;;25.63;16.38;;;;;;;;;;6149964;23;20013;-78
2022/11/22 08:48:51;;;;;;;24.00;16.00;;;;;;;;;;6126689;23;20009;-79
2022/11/22 08:51:17;;;;;;;21.20;14.55;;;;;;;;;;6126601;23;20339;-78
2022/11/22 08:53:46;;;;;;;21.30;15.52;;;;;;;;;;6148933;23;20093;-78
2022/11/22 08:56:16;;;;;;;23.67;15.20;;;;;;;;;;6148578;23;20006;-78
2022/11/22 08:58:48;;;;;;;24.63;14.60;;;;;;;;;;6153589;23;20079;-78
2022/11/22 09:01:17;;;;;;;21.08;14.68;;;;;;;;;;6153896;23;20013;-78
2022/11/22 09:03:53;;;;;;;19.73;13.73;;;;;;;;;;6153637;23;20011;-77
2022/11/22 09:06:20;;;;;;;20.88;13.27;;;;;;;;;;6155959;23;20005;-77
2022/11/22 09:08:46;;;;;;;20.67;13.20;;;;;;;;;;6153407;23;20005;-79
2022/11/22 09:11:24;;;;;;;19.60;12.73;;;;;;;;;;6153596;23;20006;-78
2022/11/22 09:13:50;;;;;;;17.25;12.55;;;;;;;;;;6153724;23;19993;-78
2022/11/22 09:16:20;;;;;;;18.88;12.50;;;;;;;;;;6155168;23;20031;-79
2022/11/22 09:18:47;;;;;;;16.23;9.88;;;;;;;;;;6154329;23;20021;-79
2022/11/22 09:21:16;;;;;;;17.58;11.77;;;;;;;;;;6155904;23;20056;-78
2022/11/22 09:23:42;;;;;;;19.63;11.95;;;;;;;;;;6155520;23;20012;-79
2022/11/22 09:26:13;;;;;;;18.65;12.27;;;;;;;;;;6153680;23;20006;-76
2022/11/22 09:28:39;;;;;;;18.55;11.75;;;;;;;;;;6153840;23;20001;-77
2022/11/22 09:31:15;;;;;;;17.27;11.65;;;;;;;;;;6156251;23;20001;-78
2022/11/22 09:37:18;;;;;;;23.77;12.13;;;;;;;;;;6064894;23;20337;-78
2022/11/22 09:52:15;;;;;;;16.35;10.77;;;;;;;;;;6186277;23;20385;-76
2022/11/22 09:55:27;;;;;;;15.70;10.60;;;;;;;;;;6122160;23;20016;-78
2022/11/22 09:57:56;;;;;;;;;;;;;;;;;;6193642;23;20361;-76
2022/11/22 10:00:24;;;;;;;16.65;11.35;;;;;;;;;;6244547;23;20351;-78
2022/11/22 10:03:06;;;;;;;14.60;10.15;;;;;;;;;;6244394;23;20428;-76
2022/11/22 10:05:47;;;;;;;15.95;10.93;;;;;;;;;;6243995;23;20043;-79
2022/11/22 10:08:34;;;;;;;17.05;11.02;;;;;;;;;;6244144;23;20062;-76
2022/11/22 10:11:03;;;;;;;15.38;10.55;;;;;;;;;;6143289;23;20396;-76
2022/11/22 10:13:36;;;;;;;17.85;10.68;;;;;;;;;;6217166;23;20000;-75
2022/11/22 10:16:20;;;;;;;16.95;11.20;;;;;;;;;;6217102;23;20359;-75
2022/11/22 10:19:05;;;;;;;15.32;9.57;;;;;;;;;;6217226;23;20007;-76
2022/11/22 10:21:46;;;;;;;;;;;;;;;;;;;;;
2022/11/22 10:24:15;;;;;;;15.32;9.60;;;;;;;;;;6240792;23;20071;-77
2022/11/22 10:26:45;;;;;;;15.48;10.25;;;;;;;;;;6217297;23;20341;-77
2022/11/22 10:29:11;;;;;;;13.25;9.60;;;;;;;;;;6217612;23;20000;-77
2022/11/22 10:31:55;;;;;;;13.82;9.52;;;;;;;;;;6217715;23;20015;-76
2022/11/22 10:38:12;;;;;;;14.02;9.98;;;;;;;;;;6090987;23;20002;-77
2022/11/22 10:40:57;;;;;;;14.73;9.70;;;;;;;;;;6223725;23;20004;-77
2022/11/22 10:43:42;;;;;;;13.77;10.18;;;;;;;;;;6243890;23;20054;-76
2022/11/22 10:46:31;;;;;;;16.33;9.40;;;;;;;;;;6216341;23;20043;-76
2022/11/22 10:49:03;;;;;;;16.23;9.98;;;;;;;;;;6201299;23;20000;-76
2022/11/22 10:51:48;;;;;;;14.52;10.35;;;;;;;;;;6244112;23;20023;-76
2022/11/22 10:54:17;;;;;;;14.77;9.65;;;;;;;;;;6244078;23;20067;-77
2022/11/22 10:56:49;;;;;;;17.75;10.88;;;;;;;;;;6243587;23;20107;-76
2022/11/22 10:59:18;;;;;;;16.15;11.07;;;;;;;;;;6243451;23;20020;-76
2022/11/22 11:02:03;;;;;;;15.27;11.05;;;;;;;;;;6217187;23;20014;-76
2022/11/22 11:04:34;;;;;;;16.70;11.80;;;;;;;;;;6216816;23;20011;-76
2022/11/22 11:07:04;;;;;;;17.35;11.63;;;;;;;;;;6243698;23;20344;-78
2022/11/22 11:09:36;;;;;;;14.68;10.98;;;;;;;;;;6215884;23;20000;-77
2022/11/22 11:12:21;;;;;;;17.58;12.40;;;;;;;;;;6216986;23;20475;-77
2022/11/22 11:15:01;;;;;;;17.60;11.77;;;;;;;;;;6243638;23;20412;-75
2022/11/22 11:17:32;;;;;;;18.02;11.70;;;;;;;;;;6216525;23;20008;-76
2022/11/22 11:20:06;;;;;;;18.73;13.35;;;;;;;;;;6243987;23;20059;-76
2022/11/22 11:22:35;;;;;;;17.60;12.85;;;;;;;;;;6244018;23;20325;-74
2022/11/22 11:25:20;;;;;;;20.38;14.07;;;;;;;;;;6217123;23;20008;-76
2022/11/22 11:27:50;;;;;;;16.85;12.70;;;;;;;;;;6216368;23;20087;-76
2022/11/22 11:30:22;;;;;;;17.45;12.70;;;;;;;;;;6216820;23;20003;-75
2022/11/22 11:32:52;;;;;;;21.67;14.93;;;;;;;;;;6216826;23;20005;-75
2022/11/22 11:35:20;;;;;;;19.73;13.65;;;;;;;;;;6216399;23;20349;-74
2022/11/22 11:37:51;;;;;;;23.10;13.82;;;;;;;;;;6216877;23;20019;-76
2022/11/22 11:40:28;;;;;;;21.00;15.30;;;;;;;;;;6218703;23;20552;-74
2022/11/22 11:43:30;;;;;;;20.13;14.13;;;;;;;;;;6245229;23;20429;-76
2022/11/22 11:46:35;;;;;;;20.17;14.40;;;;;;;;;;6069626;23;20467;-76
2022/11/22 11:49:20;;;;;;;22.92;14.52;;;;;;;;;;6244558;23;20031;-77
2022/11/22 11:51:56;;;;;;;19.88;14.20;;;;;;;;;;6245988;23;20436;-76
2022/11/22 11:54:26;;;;;;;22.08;14.55;;;;;;;;;;6245393;23;20056;-76
2022/11/22 11:56:57;;;;;;;24.30;17.38;;;;;;;;;;6218338;23;20298;-77
2022/11/22 11:59:32;;;;;;;23.33;15.57;;;;;;;;;;6218690;23;20000;-76
2022/11/22 12:02:04;;;;;;;24.83;15.23;;;;;;;;;;6218865;23;20004;-76
2022/11/22 12:04:39;;;;;;;21.17;15.23;;;;;;;;;;6245833;23;20067;-80
2022/11/22 12:07:28;;;;;;;22.77;15.80;;;;;;;;;;6195507;23;20021;-76
2022/11/22 12:09:56;;;;;;;22.58;15.30;;;;;;;;;;6185381;23;20008;-76
2022/11/22 12:12:42;;;;;;;20.95;15.35;;;;;;;;;;6185345;23;20001;-76
2022/11/22 12:15:22;;;;;;;21.83;14.88;;;;;;;;;;6185107;23;20336;-76
2022/11/22 12:17:51;;;;;;;24.75;16.20;;;;;;;;;;6184793;23;20005;-75
2022/11/22 12:20:23;;;;;;;25.55;17.83;;;;;;;;;;6185207;23;19997;-76
2022/11/22 12:23:08;;;;;;;25.48;16.92;;;;;;;;;;6174960;23;20032;-77
2022/11/22 12:25:42;;;;;;;24.30;16.88;;;;;;;;;;6155703;23;20040;-77
2022/11/22 12:31:31;;;;;;;24.20;17.17;;;;;;;;;;6093319;23;20006;-78
2022/11/22 12:34:02;;;;;;;26.15;17.63;;;;;;;;;;6069373;23;20085;-78
2022/11/22 12:36:52;;;;;;;28.00;18.83;;;;;;;;;;6112152;23;20040;-77
2022/11/22 12:39:40;;;;;;;25.98;17.85;;;;;;;;;;6124124;23;20089;-79
2022/11/22 12:45:03;;;;;;;28.48;19.85;;;;;;;;;;6212028;23;20017;-78
2022/11/22 12:47:39;;;;;;;29.27;18.45;;;;;;;;;;6214179;23;20075;-78
2022/11/22 12:50:13;;;;;;;28.33;19.65;;;;;;;;;;6215390;23;20001;-77
2022/11/22 12:53:02;;;;;;;30.27;19.58;;;;;;;;;;6213553;23;20005;-78
2022/11/22 12:55:33;;;;;;;26.77;17.83;;;;;;;;;;6214629;23;20379;-77
2022/11/22 12:58:02;;;;;;;29.60;19.13;;;;;;;;;;6218891;23;20016;-76
2022/11/22 13:00:31;;;;;;;28.95;18.25;;;;;;;;;;6244172;23;20396;-76
2022/11/22 13:03:10;;;;;;;28.40;18.20;;;;;;;;;;6242703;23;20000;-77
2022/11/22 13:05:51;;;;;;;29.88;18.98;;;;;;;;;;6244376;23;20035;-77
2022/11/22 13:08:17;;;;;;;;;;;;;;;;;;6244733;23;20000;-77
2022/11/22 13:10:46;;;;;;;27.27;18.85;;;;;;;;;;6244880;23;19945;-79
2022/11/22 13:13:27;;;;;;;29.48;18.85;;;;;;;;;;6244400;23;20079;-76
2022/11/22 13:15:53;;;;;;;;;;;;;;;;;;6218316;23;20047;-79
2022/11/22 13:18:26;;;;;;;26.05;17.90;;;;;;;;;;6242301;23;19899;-75
2022/11/22 13:21:16;;;;;;;26.90;17.38;;;;;;;;;;6217694;23;20049;-76
2022/11/22 13:24:01;;;;;;;26.83;17.70;;;;;;;;;;6174797;23;20011;-76
2022/11/22 13:26:32;;;;;;;31.02;18.88;;;;;;;;;;6244391;23;20008;-77
2022/11/22 13:28:58;;;;;;;24.00;16.42;;;;;;;;;;6237639;23;20482;-76
2022/11/22 13:31:24;;;;;;;25.95;17.02;;;;;;;;;;6244491;23;19997;-76
2022/11/22 13:33:57;;;;;;;26.48;16.55;;;;;;;;;;6244707;23;19996;-76
2022/11/22 13:36:27;;;;;;;25.15;16.75;;;;;;;;;;6242970;23;20003;-76
2022/11/22 13:38:57;;;;;;;25.02;17.20;;;;;;;;;;6241636;23;20004;-75
2022/11/22 13:41:44;;;;;;;24.60;16.27;;;;;;;;;;6242692;23;20325;-75
2022/11/22 13:44:22;;;;;;;23.95;15.45;;;;;;;;;;6236803;23;20099;-77
2022/11/22 13:47:04;;;;;;;26.23;16.40;;;;;;;;;;6242467;23;20440;-78
2022/11/22 13:49:33;;;;;;;24.55;16.42;;;;;;;;;;6244404;23;20378;-77
2022/11/22 13:52:19;;;;;;;24.05;15.88;;;;;;;;;;6242556;23;20027;-78
2022/11/22 13:54:59;;;;;;;27.85;16.73;;;;;;;;;;6244599;23;20004;-78
2022/11/22 13:57:30;;;;;;;28.90;16.40;;;;;;;;;;6215075;23;20095;-79
2022/11/22 14:00:13;;;;;;;22.05;15.07;;;;;;;;;;6218464;23;20027;-77
2022/11/22 14:02:54;;;;;;;;;;;;;;;;;;;;;
2022/11/22 14:05:27;;;;;;;25.63;16.27;;;;;;;;;;6243934;23;20095;-78
2022/11/22 14:08:08;;;;;;;28.95;17.50;;;;;;;;;;6217068;23;20008;-76
2022/11/22 14:10:43;;;;;;;27.42;15.35;;;;;;;;;;6217766;23;20000;-77
2022/11/22 14:13:12;;;;;;;25.10;16.45;;;;;;;;;;6244524;23;20004;-77
2022/11/22 14:16:09;;;;;;;24.00;15.90;;;;;;;;;;6216830;23;20016;-77
2022/11/22 14:18:47;;;;;;;29.75;15.85;;;;;;;;;;6196205;23;20030;-79
2022/11/22 14:21:43;;;;;;;24.83;16.33;;;;;;;;;;6218240;23;20310;-78
2022/11/22 14:27:01;;;;;;;25.35;16.75;;;;;;;;;;6244408;23;20046;-77
2022/11/22 14:29:49;;;;;;;24.25;16.05;;;;;;;;;;6217590;23;20020;-77
2022/11/22 14:32:22;;;;;;;22.55;15.27;;;;;;;;;;6217712;23;20001;-77
2022/11/22 14:35:03;;;;;;;26.20;16.27;;;;;;;;;;6244785;23;20067;-79
2022/11/22 14:37:32;;;;;;;24.73;16.05;;;;;;;;;;6217669;23;20482;-77
2022/11/22 14:40:02;;;;;;;27.23;15.35;;;;;;;;;;6244583;23;20027;-75
2022/11/22 14:42:39;;;;;;;28.60;17.02;;;;;;;;;;6217375;23;20026;-78
2022/11/22 14:45:11;;;;;;;28.08;17.33;;;;;;;;;;6216764;23;20126;-78
2022/11/22 14:47:37;;;;;;;28.67;16.85;;;;;;;;;;6246504;23;20011;-78
2022/11/22 14:50:08;;;;;;;27.08;17.52;;;;;;;;;;6248061;23;20000;-76
2022/11/22 14:52:36;;;;;;;25.98;17.38;;;;;;;;;;6245388;23;20000;-77
2022/11/22 14:55:08;;;;;;;25.88;17.63;;;;;;;;;;6244211;23;20011;-77
2022/11/22 14:57:34;;;;;;;;;;;;;;;;;;6217570;23;20061;-77
2022/11/22 15:00:06;;;;;;;27.05;16.50;;;;;;;;;;6244460;23;19911;-78
2022/11/22 15:02:56;;;;;;;24.58;15.30;;;;;;;;;;6217188;23;20008;-77
2022/11/22 15:05:25;;;;;;;29.75;18.27;;;;;;;;;;6216628;23;20449;-76
2022/11/22 15:08:01;;;;;;;26.58;16.65;;;;;;;;;;6217335;23;20372;-77
2022/11/22 15:10:46;;;;;;;26.73;16.65;;;;;;;;;;6244844;23;19997;-79
2022/11/22 15:13:30;;;;;;;27.00;16.75;;;;;;;;;;6218750;23;20028;-76
2022/11/22 15:16:03;;;;;;;26.10;17.25;;;;;;;;;;6247729;23;20010;-76
2022/11/22 15:18:29;;;;;;;27.88;17.27;;;;;;;;;;6247618;23;20000;-77
2022/11/22 15:20:55;;;;;;;26.30;16.88;;;;;;;;;;6219512;23;20058;-76
2022/11/22 15:23:22;;;;;;;28.33;17.67;;;;;;;;;;6219926;23;20027;-77
2022/11/22 15:25:49;;;;;;;28.17;16.48;;;;;;;;;;6248126;23;20004;-77
2022/11/22 15:28:21;;;;;;;30.33;16.98;;;;;;;;;;6247502;23;20079;-77
2022/11/22 15:30:48;;;;;;;28.42;17.73;;;;;;;;;;6221949;23;20000;-76
2022/11/22 15:33:40;;;;;;;27.50;17.15;;;;;;;;;;6222381;23;20035;-77
2022/11/22 15:36:32;;;;;;;27.58;18.15;;;;;;;;;;6221312;23;20004;-76
2022/11/22 15:38:59;;;;;;;31.33;18.27;;;;;;;;;;6220807;23;20008;-76